createdAt,value
2023-05-25T00:02:16.632Z,5.67
2023-05-25T00:07:16.679Z,9.70
2023-05-25T00:12:16.113Z,7.47
2023-05-25T00:17:14.461Z,4.90
2023-05-25T00:23:04.188Z,4.80
2023-05-25T00:28:04.868Z,6.10
2023-05-25T00:33:03.579Z,7.50
2023-05-25T00:38:02.774Z,5.10
2023-05-25T00:43:01.654Z,6.77
2023-05-25T00:48:02.365Z,5.97
2023-05-25T00:53:00.905Z,6.10
2023-05-25T00:58:05.096Z,9.20
2023-05-25T01:03:12.283Z,5.27
2023-05-25T01:08:13.249Z,5.57
2023-05-25T01:18:34.226Z,7.50
2023-05-25T01:23:38.212Z,6.17
2023-05-25T01:28:41.142Z,5.30
2023-05-25T01:33:40.255Z,7.60
2023-05-25T01:38:40.497Z,6.00
2023-05-25T01:43:39.024Z,5.77
2023-05-25T01:48:46.793Z,5.77
2023-05-25T01:53:53.931Z,5.27
2023-05-25T01:58:53.228Z,5.10
2023-05-25T02:03:52.705Z,5.50
2023-05-25T02:08:52.628Z,5.40
2023-05-25T02:13:51.596Z,5.27
2023-05-25T02:18:51.316Z,5.27
2023-05-25T02:23:51.170Z,4.77
2023-05-25T02:28:49.768Z,4.70
2023-05-25T02:33:49.463Z,5.10
2023-05-25T02:38:50.219Z,5.00
2023-05-25T02:43:51.556Z,6.20
2023-05-25T02:48:50.077Z,5.50
2023-05-25T02:53:48.626Z,6.80
2023-05-25T02:58:47.232Z,6.83
2023-05-25T03:03:52.855Z,8.07
2023-05-25T03:08:54.057Z,6.17
2023-05-25T03:13:53.201Z,4.70
2023-05-25T03:18:54.851Z,4.90
2023-05-25T03:23:54.673Z,5.00
2023-05-25T03:28:53.201Z,5.33
2023-05-25T03:33:51.735Z,5.67
2023-05-25T03:38:53.454Z,6.57
2023-05-25T03:43:51.821Z,5.97
2023-05-25T03:48:51.615Z,4.90
2023-05-25T03:53:50.279Z,4.50
2023-05-25T03:58:50.469Z,4.37
2023-05-25T04:03:50.425Z,4.80
2023-05-25T04:08:48.941Z,5.30
2023-05-25T04:13:49.227Z,5.20
2023-05-25T04:18:47.729Z,7.13
2023-05-25T04:23:46.963Z,7.80
2023-05-25T04:28:46.527Z,8.57
2023-05-25T04:33:52.977Z,8.10
2023-05-25T04:38:56.343Z,10.60
2023-05-25T04:44:06.907Z,10.50
2023-05-25T04:49:13.593Z,7.10
2023-05-25T04:54:12.165Z,10.37
2023-05-25T04:59:11.472Z,11.33
2023-05-25T05:04:12.148Z,12.43
2023-05-25T05:09:10.494Z,11.77
2023-05-25T05:14:09.838Z,11.67
2023-05-25T05:19:08.502Z,14.90
2023-05-25T05:24:08.800Z,10.33
2023-05-25T05:29:07.048Z,13.57
2023-05-25T05:34:08.087Z,9.37
2023-05-25T05:39:08.372Z,11.50
2023-05-25T05:44:06.947Z,12.70
2023-05-25T05:49:05.347Z,8.70
2023-05-25T05:54:04.547Z,10.70
2023-05-25T05:59:04.610Z,9.10
2023-05-25T06:04:03.228Z,10.40
2023-05-25T06:09:04.105Z,7.20
2023-05-25T06:14:04.260Z,8.30
2023-05-25T06:19:02.911Z,9.27
2023-05-25T06:24:01.560Z,9.47
2023-05-25T06:29:00.474Z,8.20
2023-05-25T06:34:00.461Z,9.70
2023-05-25T06:38:59.295Z,7.40
2023-05-25T06:43:57.824Z,7.30
2023-05-25T06:49:14.037Z,6.33
2023-05-25T06:54:15.217Z,6.63
2023-05-25T06:59:13.771Z,3.70
2023-05-25T07:04:13.650Z,6.10
2023-05-25T07:09:11.880Z,5.83
2023-05-25T07:14:11.036Z,5.37
2023-05-25T07:19:09.202Z,6.07
2023-05-25T07:24:09.457Z,5.10
2023-05-25T07:29:07.972Z,5.03
2023-05-25T07:34:06.147Z,5.30
2023-05-25T07:39:04.744Z,4.40
2023-05-25T07:44:04.779Z,3.70
2023-05-25T07:49:04.023Z,3.20
2023-05-25T07:54:02.578Z,3.80
2023-05-25T07:59:01.096Z,3.80
2023-05-25T08:04:01.203Z,4.30
2023-05-25T08:08:59.833Z,4.60
2023-05-25T08:14:00.245Z,5.60
2023-05-25T08:19:02.003Z,4.00
2023-05-25T08:24:04.317Z,4.37
2023-05-25T08:29:02.571Z,6.20
2023-05-25T08:34:02.901Z,3.40
2023-05-25T08:39:01.674Z,4.23
2023-05-25T08:44:06.477Z,5.70
2023-05-25T08:49:11.252Z,3.90
2023-05-25T08:54:11.646Z,4.80
2023-05-25T08:59:19.673Z,4.60
2023-05-25T09:04:20.408Z,3.97
2023-05-25T09:09:19.746Z,3.60
2023-05-25T09:14:18.291Z,3.10
2023-05-25T09:26:13.734Z,4.27
2023-05-25T09:31:12.182Z,4.90
2023-05-25T09:36:10.646Z,4.27
2023-05-25T09:41:09.568Z,4.17
2023-05-25T09:46:09.674Z,2.80
2023-05-25T09:51:08.962Z,3.30
2023-05-25T09:56:07.720Z,3.00
2023-05-25T10:01:06.649Z,2.40
2023-05-25T10:06:07.178Z,2.30
2023-05-25T10:11:07.457Z,3.10
2023-05-25T10:16:07.281Z,2.23
2023-05-25T10:21:11.025Z,3.20
2023-05-25T10:26:11.074Z,2.40
2023-05-25T10:31:11.417Z,3.47
2023-05-25T10:36:13.960Z,3.30
2023-05-25T10:41:12.878Z,2.70
2023-05-25T10:46:12.996Z,3.00
2023-05-25T10:51:13.221Z,2.70
2023-05-25T10:56:13.813Z,2.80
2023-05-25T11:01:14.690Z,2.87
2023-05-25T11:06:15.701Z,3.70
2023-05-25T11:11:14.310Z,2.60
2023-05-25T11:16:24.463Z,2.70
2023-05-25T11:21:42.758Z,3.67
2023-05-25T11:26:54.527Z,3.10
2023-05-25T11:31:56.902Z,4.00
2023-05-25T11:37:02.020Z,3.10
2023-05-25T11:42:05.329Z,4.23
2023-05-25T11:47:09.012Z,3.93
2023-05-25T11:52:09.192Z,3.23
2023-05-25T11:57:15.905Z,3.30
2023-05-25T12:02:14.428Z,3.90
2023-05-25T12:07:14.013Z,3.90
2023-05-25T12:12:13.023Z,3.00
2023-05-25T12:17:12.051Z,3.80
2023-05-25T12:22:10.945Z,4.07
2023-05-25T12:27:20.886Z,4.37
2023-05-25T12:32:19.375Z,4.47
2023-05-25T12:37:21.977Z,5.20
2023-05-25T12:42:22.126Z,4.40
2023-05-25T12:47:23.590Z,5.30
2023-05-25T12:52:35.761Z,4.83
2023-05-25T12:57:37.160Z,3.70
2023-05-25T13:02:36.059Z,5.30
2023-05-25T13:07:34.553Z,5.00
2023-05-25T13:12:33.035Z,4.30
2023-05-25T13:17:32.929Z,4.70
2023-05-25T13:22:31.514Z,5.30
2023-05-25T13:27:30.437Z,4.90
2023-05-25T13:32:31.808Z,5.40
2023-05-25T13:37:33.334Z,4.63
2023-05-25T13:42:31.889Z,4.80
2023-05-25T13:47:30.999Z,4.90
2023-05-25T13:52:29.629Z,5.57
2023-05-25T13:57:29.491Z,4.13
2023-05-25T14:02:28.109Z,4.37
2023-05-25T14:07:26.314Z,5.60
2023-05-25T14:12:24.814Z,4.73
2023-05-25T14:17:25.792Z,3.20
2023-05-25T14:22:24.268Z,2.87
2023-05-25T14:27:22.829Z,4.20
2023-05-25T14:32:21.400Z,3.80
2023-05-25T14:37:21.229Z,5.00
2023-05-25T14:42:19.417Z,5.77
2023-05-25T14:47:18.098Z,5.90
2023-05-25T14:52:16.708Z,5.23
2023-05-25T14:57:17.304Z,5.80
2023-05-25T15:02:15.916Z,5.27
2023-05-25T15:07:14.932Z,4.43
2023-05-25T15:12:13.449Z,3.43
2023-05-25T15:17:13.039Z,4.27
2023-05-25T15:22:11.559Z,4.03
2023-05-25T15:27:09.748Z,5.10
2023-05-25T15:32:10.132Z,5.60
2023-05-25T15:37:11.307Z,5.23
2023-05-25T15:42:11.430Z,4.87
2023-05-25T15:47:09.961Z,4.20
2023-05-25T15:52:10.103Z,4.47
2023-05-25T15:57:08.580Z,3.53
2023-05-25T16:02:07.122Z,4.20
2023-05-25T16:07:06.050Z,5.50
2023-05-25T16:12:07.171Z,3.33
2023-05-25T16:17:06.101Z,5.30
2023-05-25T16:22:04.641Z,5.10
2023-05-25T16:27:03.450Z,5.63
2023-05-25T16:32:03.070Z,5.80
2023-05-25T16:37:01.605Z,5.47
2023-05-25T16:41:59.780Z,4.10
2023-05-25T16:46:58.285Z,5.10
2023-05-25T16:51:58.532Z,4.53
2023-05-25T16:56:56.994Z,4.13
2023-05-25T17:01:55.719Z,4.83
2023-05-25T17:06:54.346Z,5.30
2023-05-25T17:11:54.228Z,5.53
2023-05-25T17:16:52.446Z,5.67
2023-05-25T17:21:51.258Z,5.20
2023-05-25T17:26:51.545Z,4.93
2023-05-25T17:31:51.556Z,5.43
2023-05-25T17:36:50.293Z,5.40
2023-05-25T17:41:50.019Z,5.23
2023-05-25T17:46:48.535Z,3.70
2023-05-25T17:51:48.418Z,5.63
2023-05-25T17:56:47.045Z,4.63
2023-05-25T18:01:45.621Z,5.20
2023-05-25T18:06:44.130Z,4.43
2023-05-25T18:11:43.982Z,3.70
2023-05-25T18:16:44.977Z,4.30
2023-05-25T18:21:43.586Z,4.40
2023-05-25T18:26:44.270Z,6.13
2023-05-25T18:31:45.921Z,3.50
2023-05-25T18:36:44.502Z,3.97
2023-05-25T18:41:44.108Z,3.97
2023-05-25T18:46:44.491Z,4.67
2023-05-25T18:51:42.683Z,4.50
2023-05-25T18:56:42.872Z,5.17
2023-05-25T19:01:41.458Z,3.97
2023-05-25T19:06:39.941Z,4.00
2023-05-25T19:11:38.100Z,4.70
2023-05-25T19:16:38.021Z,3.30
2023-05-25T19:21:36.772Z,4.70
2023-05-25T19:26:37.049Z,3.57
2023-05-25T19:31:35.579Z,4.10
2023-05-25T19:36:35.483Z,3.77
2023-05-25T19:41:33.982Z,3.77
2023-05-25T19:46:32.593Z,4.73
2023-05-25T19:51:31.411Z,4.33
2023-05-25T19:56:31.265Z,3.47
2023-05-25T20:01:30.072Z,4.87
2023-05-25T20:06:28.616Z,3.07
2023-05-25T20:11:27.979Z,3.20
2023-05-25T20:16:27.600Z,3.50
2023-05-25T20:21:26.210Z,4.47
2023-05-25T20:26:24.705Z,4.90
2023-05-25T20:31:23.263Z,4.30
2023-05-25T20:36:23.146Z,3.20
2023-05-25T20:41:21.683Z,4.30
2023-05-25T20:46:20.257Z,3.90
2023-05-25T20:51:18.428Z,4.43
2023-05-25T20:56:18.344Z,4.17
2023-05-25T21:01:17.002Z,3.73
2023-05-25T21:06:15.849Z,4.43
2023-05-25T21:11:14.043Z,3.70
2023-05-25T21:16:14.016Z,4.60
2023-05-25T21:21:12.594Z,4.90
2023-05-25T21:26:11.276Z,2.43
2023-05-25T21:31:09.964Z,4.63
2023-05-25T21:37:10.657Z,5.87
2023-05-25T21:42:10.957Z,3.80
2023-05-25T21:47:09.481Z,4.13
2023-05-25T21:52:07.982Z,4.40
2023-05-25T21:57:06.917Z,4.63
2023-05-25T22:02:07.063Z,4.27
2023-05-25T22:07:06.185Z,4.50
2023-05-25T22:12:04.791Z,4.80
2023-05-25T22:17:03.562Z,4.80
2023-05-25T22:22:03.558Z,3.67
2023-05-25T22:27:03.322Z,3.47
2023-05-25T22:32:01.816Z,4.10
2023-05-25T22:37:00.605Z,2.30
2023-05-25T22:42:00.500Z,3.30
2023-05-25T22:46:58.970Z,4.10
2023-05-25T22:51:57.695Z,5.50
2023-05-25T22:56:56.185Z,2.93
2023-05-25T23:01:56.485Z,3.43
2023-05-25T23:06:55.026Z,3.67
2023-05-25T23:11:53.525Z,2.77
2023-05-25T23:16:52.202Z,3.40
2023-05-25T23:21:52.087Z,3.60
2023-05-25T23:26:51.136Z,4.33
2023-05-25T23:31:49.665Z,3.33
2023-05-25T23:36:48.165Z,4.27
2023-05-25T23:41:48.011Z,4.20
2023-05-25T23:46:46.522Z,4.60
2023-05-25T23:51:45.020Z,3.80
2023-05-25T23:56:43.495Z,3.93
